createdAt,value
2017-09-14T00:01:16.885Z,77.50
2017-09-14T00:03:45.732Z,77.50
2017-09-14T00:06:14.588Z,77.70
2017-09-14T00:08:43.443Z,78.10
2017-09-14T00:11:12.281Z,77.90
2017-09-14T00:13:40.801Z,77.80
2017-09-14T00:16:09.643Z,78.00
2017-09-14T00:18:38.960Z,77.90
2017-09-14T00:21:07.901Z,77.70
2017-09-14T00:23:37.519Z,77.80
2017-09-14T00:26:07.150Z,78.20
2017-09-14T00:28:36.001Z,78.20
2017-09-14T00:31:04.852Z,78.10
2017-09-14T00:33:33.708Z,78.60
2017-09-14T00:36:02.551Z,78.40
2017-09-14T00:38:31.061Z,78.10
2017-09-14T00:40:59.899Z,77.80
2017-09-14T00:43:28.744Z,77.90
2017-09-14T00:45:57.598Z,78.10
2017-09-14T00:48:26.454Z,77.70
2017-09-14T00:50:54.944Z,77.90
2017-09-14T00:53:23.092Z,78.10
2017-09-14T00:55:52.717Z,78.40
2017-09-14T00:58:21.580Z,78.40
2017-09-14T01:00:51.204Z,78.50
2017-09-14T01:03:20.052Z,78.30
2017-09-14T01:05:48.903Z,78.70
2017-09-14T01:08:17.757Z,78.70
2017-09-14T01:10:46.255Z,79.00
2017-09-14T01:13:15.868Z,79.50
2017-09-14T01:15:44.726Z,79.50
2017-09-14T01:18:13.590Z,80.00
2017-09-14T01:20:42.621Z,80.10
2017-09-14T01:23:10.783Z,80.50
2017-09-14T01:25:39.292Z,81.20
2017-09-14T01:28:09.582Z,82.00
2017-09-14T01:30:40.115Z,82.00
2017-09-14T01:33:08.280Z,83.00
2017-09-14T01:35:36.448Z,83.60
2017-09-14T01:38:04.609Z,83.40
2017-09-14T01:40:33.126Z,83.60
2017-09-14T01:43:01.982Z,83.80
2017-09-14T01:45:31.600Z,84.30
2017-09-14T01:48:00.496Z,84.30
2017-09-14T01:50:29.000Z,84.30
2017-09-14T01:52:57.859Z,85.00
2017-09-14T01:55:26.720Z,85.30
2017-09-14T01:57:56.339Z,84.60
2017-09-14T02:00:25.201Z,84.60
2017-09-14T02:02:54.046Z,84.30
2017-09-14T02:05:22.905Z,84.00
2017-09-14T02:07:51.752Z,84.00
2017-09-14T02:10:20.604Z,84.20
2017-09-14T02:12:49.485Z,84.30
2017-09-14T02:15:19.011Z,84.00
2017-09-14T02:17:47.740Z,83.80
2017-09-14T02:20:16.584Z,83.90
2017-09-14T02:22:45.669Z,84.10
2017-09-14T02:25:14.533Z,84.10
2017-09-14T02:27:44.145Z,84.10
2017-09-14T02:30:13.776Z,83.80
2017-09-14T02:32:42.645Z,83.70
2017-09-14T02:35:12.248Z,83.50
2017-09-14T02:37:41.090Z,83.50
2017-09-14T02:40:09.936Z,83.30
2017-09-14T02:42:39.564Z,83.30
2017-09-14T02:45:08.438Z,83.20
2017-09-14T02:47:38.045Z,83.50
2017-09-14T02:50:07.468Z,83.70
2017-09-14T02:52:36.311Z,83.70
2017-09-14T02:55:05.157Z,83.90
2017-09-14T02:57:34.006Z,83.80
2017-09-14T03:00:02.851Z,84.50
2017-09-14T03:02:31.700Z,84.80
2017-09-14T03:05:01.319Z,84.50
2017-09-14T03:07:30.216Z,84.50
2017-09-14T03:09:59.376Z,84.50
2017-09-14T03:12:28.227Z,84.70
2017-09-14T03:14:57.079Z,84.70
2017-09-14T03:17:26.699Z,84.60
2017-09-14T03:19:57.994Z,84.60
2017-09-14T03:22:27.852Z,84.50
2017-09-14T03:24:57.477Z,84.40
2017-09-14T03:27:26.328Z,84.40
2017-09-14T03:29:55.172Z,84.20
2017-09-14T03:32:23.840Z,84.10
2017-09-14T03:34:53.261Z,84.20
2017-09-14T03:37:22.119Z,84.10
2017-09-14T03:39:51.727Z,84.00
2017-09-14T03:42:20.619Z,83.70
2017-09-14T03:44:50.241Z,83.80
2017-09-14T03:47:19.851Z,83.90
2017-09-14T03:49:49.508Z,83.80
2017-09-14T03:52:18.359Z,83.80
2017-09-14T03:54:47.207Z,83.20
2017-09-14T03:57:16.069Z,83.10
2017-09-14T03:59:44.723Z,82.80
2017-09-14T04:02:14.564Z,82.80
2017-09-14T04:04:44.264Z,82.60
2017-09-14T04:07:13.121Z,81.90
2017-09-14T04:09:42.736Z,80.70
2017-09-14T04:12:12.355Z,80.30
2017-09-14T04:14:41.213Z,80.20
2017-09-14T04:17:10.995Z,79.90
2017-09-14T04:19:39.957Z,79.80
2017-09-14T04:22:08.796Z,79.60
2017-09-14T04:24:37.648Z,79.40
2017-09-14T04:27:06.498Z,79.30
2017-09-14T04:29:36.112Z,79.70
2017-09-14T04:32:05.720Z,79.10
2017-09-14T04:34:34.566Z,79.10
2017-09-14T04:37:03.417Z,79.30
2017-09-14T04:39:33.031Z,78.80
2017-09-14T04:42:01.880Z,78.80
2017-09-14T04:44:30.725Z,78.40
2017-09-14T04:46:59.578Z,78.30
2017-09-14T04:49:28.411Z,78.20
2017-09-14T04:51:57.996Z,77.80
2017-09-14T04:54:27.415Z,77.20
2017-09-14T04:56:56.975Z,77.20
2017-09-14T04:59:25.644Z,76.70
2017-09-14T05:01:54.485Z,76.20
2017-09-14T05:04:25.349Z,76.10
2017-09-14T05:06:54.199Z,76.10
2017-09-14T05:09:23.822Z,76.00
2017-09-14T05:11:53.439Z,75.90
2017-09-14T05:14:22.641Z,75.90
2017-09-14T05:16:51.502Z,75.80
2017-09-14T05:19:21.113Z,76.20
2017-09-14T05:21:50.022Z,75.60
2017-09-14T05:24:18.889Z,75.60
2017-09-14T05:26:49.307Z,75.20
2017-09-14T05:29:18.860Z,75.30
2017-09-14T05:31:49.495Z,75.10
2017-09-14T05:34:18.347Z,74.60
2017-09-14T05:36:47.193Z,74.30
2017-09-14T05:39:16.059Z,74.50
2017-09-14T05:41:44.920Z,74.20
2017-09-14T05:44:13.773Z,74.00
2017-09-14T05:46:42.606Z,73.70
2017-09-14T05:49:12.215Z,72.40
2017-09-14T05:51:41.111Z,73.00
2017-09-14T05:54:10.996Z,72.50
2017-09-14T05:56:41.560Z,72.60
2017-09-14T05:59:11.171Z,72.00
2017-09-14T06:01:40.896Z,71.50
2017-09-14T06:04:11.770Z,71.50
2017-09-14T06:06:41.668Z,71.30
2017-09-14T06:09:10.516Z,70.90
2017-09-14T06:11:39.364Z,71.00
2017-09-14T06:14:08.228Z,71.10
2017-09-14T06:16:37.075Z,70.90
2017-09-14T06:19:06.291Z,70.50
2017-09-14T06:21:35.904Z,70.40
2017-09-14T06:24:05.516Z,70.60
2017-09-14T06:26:35.143Z,70.80
2017-09-14T06:29:03.981Z,70.80
2017-09-14T06:31:32.819Z,70.80
2017-09-14T06:34:06.056Z,71.00
2017-09-14T06:36:34.905Z,70.90
2017-09-14T06:41:37.584Z,71.50
2017-09-14T06:44:07.047Z,71.50
2017-09-14T06:46:35.902Z,71.60
2017-09-14T06:49:05.620Z,71.60
2017-09-14T06:51:34.478Z,71.80
2017-09-14T06:54:04.093Z,71.70
2017-09-14T06:56:33.720Z,71.50
2017-09-14T06:59:03.310Z,71.50
2017-09-14T07:01:32.935Z,71.00
2017-09-14T07:04:01.780Z,70.90
2017-09-14T07:06:31.304Z,70.40
2017-09-14T07:09:00.172Z,70.10
2017-09-14T07:11:29.012Z,70.00
2017-09-14T07:13:59.311Z,70.10
2017-09-14T07:16:28.158Z,69.80
2017-09-14T07:18:57.455Z,69.70
2017-09-14T07:21:26.322Z,69.40
2017-09-14T07:23:55.452Z,68.90
2017-09-14T07:26:24.304Z,68.30
2017-09-14T07:28:53.651Z,68.40
2017-09-14T07:31:22.504Z,67.60
2017-09-14T07:33:51.366Z,67.20
2017-09-14T07:36:20.212Z,66.40
2017-09-14T07:38:49.055Z,66.40
2017-09-14T07:41:18.663Z,65.90
2017-09-14T07:43:48.394Z,65.80
2017-09-14T07:46:17.240Z,65.20
2017-09-14T07:48:46.090Z,64.60
2017-09-14T07:51:15.510Z,64.40
2017-09-14T07:53:44.365Z,63.70
2017-09-14T07:56:13.976Z,63.30
2017-09-14T07:58:43.592Z,63.70
2017-09-14T08:01:13.033Z,63.60
2017-09-14T08:03:41.922Z,63.40
2017-09-14T08:06:10.773Z,62.30
2017-09-14T08:08:39.649Z,62.00
2017-09-14T08:11:09.273Z,61.60
2017-09-14T08:13:38.684Z,61.30
2017-09-14T08:16:09.415Z,61.10
2017-09-14T08:18:38.260Z,61.10
2017-09-14T08:21:07.614Z,60.50
2017-09-14T08:23:35.776Z,60.50
2017-09-14T08:26:05.398Z,61.00
2017-09-14T08:28:34.251Z,60.90
2017-09-14T08:31:03.156Z,60.60
2017-09-14T08:33:32.767Z,60.60
2017-09-14T08:36:02.384Z,60.70
2017-09-14T08:38:32.337Z,60.40
2017-09-14T08:41:01.193Z,60.40
2017-09-14T08:43:30.809Z,60.00
2017-09-14T08:45:59.726Z,59.90
2017-09-14T08:48:28.241Z,59.90
2017-09-14T08:50:57.089Z,59.50
2017-09-14T08:53:25.935Z,59.40
2017-09-14T08:55:55.018Z,58.50
2017-09-14T08:58:23.875Z,58.60
2017-09-14T09:00:52.719Z,58.10
2017-09-14T09:03:23.200Z,58.10
2017-09-14T09:05:52.058Z,58.00
2017-09-14T09:08:21.479Z,58.20
2017-09-14T09:10:50.326Z,58.20
2017-09-14T09:13:19.179Z,58.20
2017-09-14T09:15:48.044Z,58.10
2017-09-14T09:18:16.898Z,58.20
2017-09-14T09:20:45.740Z,57.90
2017-09-14T09:23:14.585Z,58.00
2017-09-14T09:25:43.432Z,58.20
2017-09-14T09:28:12.296Z,58.10
2017-09-14T09:30:41.144Z,58.10
2017-09-14T09:33:09.981Z,58.00
2017-09-14T09:35:38.865Z,57.90
2017-09-14T09:38:07.764Z,57.50
2017-09-14T09:40:36.623Z,57.70
2017-09-14T09:43:06.236Z,58.20
2017-09-14T09:45:35.844Z,57.70
2017-09-14T09:48:04.724Z,57.70
2017-09-14T09:50:33.563Z,57.50
2017-09-14T09:53:03.160Z,57.30
2017-09-14T09:55:32.042Z,57.20
2017-09-14T09:58:00.936Z,57.00
2017-09-14T10:00:29.792Z,56.80
2017-09-14T10:02:58.669Z,56.80
2017-09-14T10:05:27.518Z,57.00
2017-09-14T10:07:56.376Z,57.10
2017-09-14T10:10:25.218Z,56.80
2017-09-14T10:12:54.086Z,56.40
2017-09-14T10:15:23.386Z,56.50
2017-09-14T10:17:52.300Z,56.50
2017-09-14T10:20:21.178Z,56.50
2017-09-14T10:22:50.036Z,56.50
2017-09-14T10:25:18.949Z,56.40
2017-09-14T10:27:48.354Z,57.10
2017-09-14T10:30:17.268Z,56.10
2017-09-14T10:32:47.365Z,55.90
2017-09-14T10:35:16.213Z,55.70
2017-09-14T10:37:49.049Z,55.90
2017-09-14T10:40:18.796Z,55.70
2017-09-14T10:42:47.817Z,55.30
2017-09-14T10:45:18.204Z,55.20
2017-09-14T10:47:47.059Z,55.20
2017-09-14T10:50:15.917Z,55.30
2017-09-14T10:52:45.432Z,55.30
2017-09-14T10:55:15.051Z,55.50
2017-09-14T10:57:44.916Z,55.40
2017-09-14T11:00:13.866Z,55.30
2017-09-14T11:02:42.743Z,55.10
2017-09-14T11:05:12.893Z,55.00
2017-09-14T11:07:41.768Z,54.80
2017-09-14T11:10:10.636Z,55.00
2017-09-14T11:12:39.482Z,55.10
2017-09-14T11:15:08.325Z,55.00
2017-09-14T11:17:37.185Z,55.00
2017-09-14T11:20:06.037Z,55.20
2017-09-14T11:22:34.700Z,55.70
2017-09-14T11:25:04.601Z,55.80
2017-09-14T11:27:33.226Z,55.80
2017-09-14T11:30:02.070Z,55.90
2017-09-14T11:32:30.947Z,55.90
2017-09-14T11:34:59.797Z,55.90
2017-09-14T11:37:28.664Z,56.00
2017-09-14T11:39:58.288Z,56.40
2017-09-14T11:42:27.905Z,55.80
2017-09-14T11:44:56.749Z,55.80
2017-09-14T11:47:25.768Z,56.00
2017-09-14T11:49:56.455Z,56.00
2017-09-14T11:52:26.111Z,56.00
2017-09-14T11:54:55.717Z,55.60
2017-09-14T11:57:24.577Z,56.10
2017-09-14T11:59:53.440Z,56.10
2017-09-14T12:02:22.296Z,55.70
2017-09-14T12:04:51.905Z,55.60
2017-09-14T12:07:21.531Z,55.70
2017-09-14T12:09:50.401Z,55.70
2017-09-14T12:12:21.487Z,55.60
2017-09-14T12:14:50.329Z,55.50
2017-09-14T12:17:19.099Z,55.60
2017-09-14T12:19:47.948Z,56.30
2017-09-14T12:22:16.796Z,55.70
2017-09-14T12:24:45.652Z,56.00
2017-09-14T12:27:14.846Z,56.40
2017-09-14T12:29:43.689Z,56.30
2017-09-14T12:32:13.328Z,56.60
2017-09-14T12:34:42.180Z,56.60
2017-09-14T12:37:12.556Z,57.10
2017-09-14T12:39:41.680Z,57.10
2017-09-14T12:42:10.551Z,57.50
2017-09-14T12:44:39.423Z,58.50
2017-09-14T12:47:08.340Z,58.10
2017-09-14T12:49:37.196Z,58.60
2017-09-14T12:52:06.049Z,59.20
2017-09-14T12:54:35.700Z,59.50
2017-09-14T12:57:04.538Z,59.50
2017-09-14T12:59:33.408Z,59.50
2017-09-14T13:02:02.269Z,59.90
2017-09-14T13:04:31.125Z,59.80
2017-09-14T13:06:59.788Z,60.00
2017-09-14T13:09:28.646Z,60.30
2017-09-14T13:11:57.508Z,60.70
2017-09-14T13:14:27.011Z,61.30
2017-09-14T13:16:56.446Z,61.90
2017-09-14T13:19:25.112Z,61.50
2017-09-14T13:21:54.539Z,61.50
2017-09-14T13:24:24.299Z,61.40
2017-09-14T13:26:53.144Z,61.90
2017-09-14T13:29:22.235Z,61.80
2017-09-14T13:31:51.099Z,61.70
2017-09-14T13:34:20.744Z,61.50
2017-09-14T13:36:50.365Z,61.40
2017-09-14T13:39:19.761Z,61.60
2017-09-14T13:41:48.632Z,61.40
2017-09-14T13:46:52.892Z,61.10
2017-09-14T13:49:21.736Z,61.00
2017-09-14T13:51:51.155Z,61.30
2017-09-14T13:54:20.792Z,60.40
2017-09-14T13:56:50.605Z,60.30
2017-09-14T13:59:19.461Z,60.40
2017-09-14T14:01:49.075Z,60.20
2017-09-14T14:04:18.758Z,60.10
2017-09-14T14:06:46.716Z,60.00
2017-09-14T14:09:15.572Z,60.00
2017-09-14T14:11:44.309Z,60.10
2017-09-14T14:14:13.643Z,59.80
2017-09-14T14:16:44.738Z,59.50
2017-09-14T14:19:14.059Z,59.60
2017-09-14T14:21:42.930Z,59.60
2017-09-14T14:24:11.792Z,59.50
2017-09-14T14:26:40.629Z,59.30
2017-09-14T14:29:10.153Z,59.30
2017-09-14T14:31:39.767Z,59.00
2017-09-14T14:34:09.273Z,58.70
2017-09-14T14:36:38.892Z,58.60
2017-09-14T14:39:07.744Z,58.50
2017-09-14T14:41:36.605Z,58.50
2017-09-14T14:44:05.452Z,58.30
2017-09-14T14:46:33.983Z,58.30
2017-09-14T14:49:02.487Z,58.30
2017-09-14T14:51:33.115Z,58.10
2017-09-14T14:54:02.908Z,58.20
2017-09-14T14:56:33.686Z,58.30
2017-09-14T14:59:03.300Z,58.30
2017-09-14T15:01:32.955Z,58.20
2017-09-14T15:04:02.522Z,58.20
2017-09-14T15:06:32.759Z,58.20
2017-09-14T15:09:01.478Z,58.20
2017-09-14T15:11:30.352Z,58.20
2017-09-14T15:13:59.234Z,58.30
2017-09-14T15:16:28.081Z,58.30
2017-09-14T15:18:57.171Z,58.20
2017-09-14T15:21:26.189Z,58.10
2017-09-14T15:23:55.820Z,58.20
2017-09-14T15:26:25.252Z,58.10
2017-09-14T15:28:53.910Z,58.00
2017-09-14T15:31:22.568Z,58.10
2017-09-14T15:33:51.494Z,58.10
2017-09-14T15:36:20.353Z,57.90
2017-09-14T15:38:54.698Z,57.80
2017-09-14T15:41:28.955Z,57.40
2017-09-14T15:44:03.168Z,56.50
2017-09-14T15:46:32.091Z,56.50
2017-09-14T15:49:06.463Z,56.30
2017-09-14T15:51:40.700Z,55.80
2017-09-14T15:54:10.498Z,54.70
2017-09-14T15:56:40.561Z,53.80
2017-09-14T15:59:10.347Z,52.80
2017-09-14T16:01:39.200Z,52.40
2017-09-14T16:04:08.042Z,52.40
2017-09-14T16:06:36.884Z,53.10
2017-09-14T16:09:05.759Z,53.30
2017-09-14T16:11:35.392Z,54.10
2017-09-14T16:14:04.096Z,54.10
2017-09-14T16:16:32.756Z,54.60
2017-09-14T16:19:01.431Z,54.70
2017-09-14T16:21:30.104Z,54.90
2017-09-14T16:23:59.554Z,55.00
2017-09-14T16:26:28.221Z,55.00
2017-09-14T16:28:57.072Z,55.20
2017-09-14T16:31:25.929Z,55.30
2017-09-14T16:33:54.785Z,55.30
2017-09-14T16:36:24.400Z,55.70
2017-09-14T16:38:57.209Z,55.70
2017-09-14T16:41:25.871Z,55.70
2017-09-14T16:43:54.537Z,55.90
2017-09-14T16:46:23.388Z,56.00
2017-09-14T16:48:52.803Z,56.00
2017-09-14T16:51:21.642Z,56.20
2017-09-14T16:53:50.496Z,56.20
2017-09-14T16:56:19.374Z,56.20
2017-09-14T16:58:48.225Z,56.40
2017-09-14T17:01:18.464Z,57.30
2017-09-14T17:03:47.366Z,56.70
2017-09-14T17:06:17.470Z,56.90
2017-09-14T17:08:46.396Z,57.00
2017-09-14T17:11:16.075Z,57.10
2017-09-14T17:13:45.000Z,57.30
2017-09-14T17:16:14.838Z,57.40
2017-09-14T17:18:46.248Z,57.70
2017-09-14T17:21:15.099Z,57.70
2017-09-14T17:23:44.126Z,57.80
2017-09-14T17:26:13.774Z,57.90
2017-09-14T17:28:43.406Z,58.10
2017-09-14T17:31:12.253Z,58.10
2017-09-14T17:33:41.100Z,58.20
2017-09-14T17:36:09.932Z,58.30
2017-09-14T17:38:38.782Z,58.50
2017-09-14T17:41:07.913Z,58.50
2017-09-14T17:43:37.780Z,58.70
2017-09-14T17:46:06.653Z,58.70
2017-09-14T17:48:36.338Z,59.20
2017-09-14T17:51:05.196Z,58.70
2017-09-14T17:53:34.514Z,59.10
2017-09-14T17:56:03.355Z,59.10
2017-09-14T17:58:32.974Z,59.10
2017-09-14T18:01:01.872Z,59.00
2017-09-14T18:03:30.720Z,59.10
2017-09-14T18:05:59.564Z,58.90
2017-09-14T18:08:28.445Z,58.90
2017-09-14T18:10:57.284Z,59.00
2017-09-14T18:13:28.153Z,59.00
2017-09-14T18:15:57.770Z,59.40
2017-09-14T18:18:28.328Z,58.80
2017-09-14T18:20:57.192Z,58.80
2017-09-14T18:23:26.803Z,58.80
2017-09-14T18:25:56.423Z,58.80
2017-09-14T18:28:26.084Z,58.80
2017-09-14T18:30:55.432Z,58.60
2017-09-14T18:33:24.333Z,58.50
2017-09-14T18:35:53.969Z,58.60
2017-09-14T18:38:25.075Z,58.60
2017-09-14T18:40:53.941Z,58.60
2017-09-14T18:43:23.578Z,58.60
2017-09-14T18:45:52.429Z,58.50
2017-09-14T18:48:21.363Z,58.40
2017-09-14T18:50:53.236Z,58.20
2017-09-14T18:53:22.098Z,58.20
2017-09-14T18:55:56.620Z,58.20
2017-09-14T19:04:36.561Z,58.50
2017-09-14T19:07:05.494Z,58.20
2017-09-14T19:09:40.160Z,58.20
2017-09-14T19:12:23.711Z,58.10
2017-09-14T19:14:52.586Z,58.10
2017-09-14T19:17:21.440Z,58.20
2017-09-14T19:19:57.797Z,58.10
2017-09-14T19:22:26.895Z,58.10
2017-09-14T19:24:55.764Z,58.30
2017-09-14T19:27:24.639Z,58.20
2017-09-14T19:29:53.492Z,58.60
2017-09-14T19:32:23.132Z,58.20
2017-09-14T19:34:53.012Z,58.10
2017-09-14T19:37:21.883Z,58.20
2017-09-14T19:39:53.673Z,58.10
2017-09-14T19:42:24.875Z,58.00
2017-09-14T19:44:53.723Z,58.00
2017-09-14T19:47:22.581Z,58.00
2017-09-14T19:49:51.432Z,58.00
2017-09-14T19:52:20.277Z,58.10
2017-09-14T19:54:49.894Z,58.50
2017-09-14T19:59:53.653Z,58.40
2017-09-14T20:02:23.365Z,59.00
2017-09-14T20:07:24.934Z,58.20
2017-09-14T20:09:53.809Z,58.40
2017-09-14T20:12:23.223Z,58.40
2017-09-14T20:14:52.425Z,58.40
2017-09-14T20:17:21.309Z,58.30
2017-09-14T20:19:50.168Z,58.30
2017-09-14T20:22:19.819Z,58.30
2017-09-14T20:24:48.669Z,58.30
2017-09-14T20:27:18.749Z,58.40
2017-09-14T20:29:49.800Z,58.30
2017-09-14T20:35:00.324Z,58.70
2017-09-14T20:37:29.173Z,58.40
2017-09-14T20:40:07.040Z,58.50
2017-09-14T20:42:36.988Z,58.70
2017-09-14T20:45:05.897Z,58.60
2017-09-14T20:47:34.750Z,58.60
2017-09-14T20:50:03.658Z,58.70
2017-09-14T20:52:32.507Z,58.70
2017-09-14T20:55:01.375Z,58.70
2017-09-14T20:57:32.451Z,58.90
2017-09-14T21:00:02.207Z,58.90
2017-09-14T21:02:34.832Z,59.10
2017-09-14T21:05:03.689Z,59.20
2017-09-14T21:07:32.533Z,59.30
2017-09-14T21:10:01.396Z,59.80
2017-09-14T21:12:30.561Z,59.60
2017-09-14T21:14:59.668Z,59.60
2017-09-14T21:17:29.297Z,59.50
2017-09-14T21:19:58.908Z,59.60
2017-09-14T21:22:28.517Z,59.60
2017-09-14T21:24:57.734Z,59.60
2017-09-14T21:27:26.584Z,59.70
2017-09-14T21:29:56.196Z,59.90
2017-09-14T21:32:25.817Z,60.10
2017-09-14T21:34:55.428Z,60.10
2017-09-14T21:37:25.039Z,60.40
2017-09-14T21:39:53.891Z,60.20
2017-09-14T21:42:22.734Z,60.60
2017-09-14T21:44:51.604Z,61.10
2017-09-14T21:47:21.223Z,62.00
2017-09-14T21:49:50.072Z,61.90
2017-09-14T23:20:17.267Z,62.80
2017-09-14T23:22:48.591Z,71.80
2017-09-14T23:25:17.591Z,71.70
2017-09-14T23:27:46.656Z,72.80
2017-09-14T23:30:15.666Z,73.80
2017-09-14T23:32:47.502Z,74.40
2017-09-14T23:35:16.368Z,74.50
2017-09-14T23:37:48.963Z,75.20
2017-09-14T23:40:17.867Z,75.80
2017-09-14T23:42:46.709Z,76.40
2017-09-14T23:45:16.324Z,77.00
2017-09-14T23:47:45.928Z,77.80
2017-09-14T23:50:14.772Z,77.80
2017-09-14T23:52:44.452Z,78.50
2017-09-14T23:55:13.888Z,78.60
2017-09-14T23:57:45.461Z,79.20
